createdAt,value
2017-08-26T00:01:01.892Z,0
2017-08-26T00:02:11.516Z,0
2017-08-26T00:03:20.614Z,0
2017-08-26T00:04:29.881Z,0
2017-08-26T00:05:38.936Z,0
2017-08-26T00:06:48.572Z,0
2017-08-26T00:07:57.580Z,0
2017-08-26T00:09:06.710Z,0
2017-08-26T00:10:15.397Z,0
2017-08-26T00:11:24.081Z,0
2017-08-26T00:12:33.089Z,0
2017-08-26T00:13:42.085Z,0
2017-08-26T00:14:50.913Z,0
2017-08-26T00:16:00.519Z,0
2017-08-26T00:17:09.813Z,0
2017-08-26T00:18:18.488Z,0
2017-08-26T00:19:27.479Z,0
2017-08-26T00:20:36.975Z,0
2017-08-26T00:21:46.287Z,0
2017-08-26T00:22:55.900Z,0
2017-08-26T00:24:05.237Z,0
2017-08-26T00:25:13.925Z,0
2017-08-26T00:26:23.283Z,0
2017-08-26T00:27:32.259Z,0
2017-08-26T00:28:41.584Z,0
2017-08-26T00:29:51.216Z,0
2017-08-26T00:31:01.178Z,0
2017-08-26T00:32:10.643Z,0
2017-08-26T00:33:19.350Z,0
2017-08-26T00:34:28.647Z,0
2017-08-26T00:35:37.660Z,0
2017-08-26T00:36:46.963Z,0
2017-08-26T00:37:55.799Z,0
2017-08-26T00:39:04.472Z,0
2017-08-26T00:40:13.769Z,0
2017-08-26T00:41:23.058Z,0
2017-08-26T00:42:32.393Z,0
2017-08-26T00:43:41.991Z,0
2017-08-26T00:44:50.655Z,0
2017-08-26T00:45:59.695Z,0
2017-08-26T00:47:08.735Z,0
2017-08-26T00:48:18.025Z,0
2017-08-26T00:49:27.496Z,0
2017-08-26T00:50:36.476Z,0
2017-08-26T00:51:45.814Z,0
2017-08-26T00:52:54.787Z,0
2017-08-26T00:54:04.417Z,0
2017-08-26T00:55:13.233Z,0
2017-08-26T00:56:22.552Z,0
2017-08-26T00:57:31.850Z,0
2017-08-26T00:58:40.852Z,0
2017-08-26T00:59:49.859Z,0
2017-08-26T01:00:59.004Z,0
2017-08-26T01:02:07.681Z,0
2017-08-26T01:03:16.649Z,0
2017-08-26T01:04:26.262Z,0
2017-08-26T01:05:35.254Z,0
2017-08-26T01:06:44.389Z,0
2017-08-26T01:07:53.678Z,0
2017-08-26T01:09:02.334Z,0
2017-08-26T01:10:12.302Z,0
2017-08-26T01:11:21.293Z,0
2017-08-26T01:12:30.258Z,0
2017-08-26T01:13:39.561Z,0
2017-08-26T01:14:48.216Z,0
2017-08-26T01:15:57.511Z,0
2017-08-26T01:17:06.505Z,0
2017-08-26T01:18:15.980Z,0
2017-08-26T01:19:24.988Z,0
2017-08-26T01:20:34.290Z,0
2017-08-26T01:21:43.273Z,0
2017-08-26T01:22:52.925Z,0
2017-08-26T01:24:01.927Z,0
2017-08-26T01:25:10.922Z,0
2017-08-26T01:26:20.537Z,0
2017-08-26T01:27:29.513Z,0
2017-08-26T01:28:38.796Z,0
2017-08-26T01:29:47.923Z,0
2017-08-26T01:30:56.911Z,0
2017-08-26T01:32:06.251Z,0
2017-08-26T01:33:15.556Z,0
2017-08-26T01:34:24.524Z,0
2017-08-26T01:35:33.334Z,0
2017-08-26T01:36:42.336Z,0
2017-08-26T01:37:51.325Z,0
2017-08-26T01:38:59.985Z,0
2017-08-26T01:40:09.282Z,0
2017-08-26T01:41:18.574Z,0
2017-08-26T01:42:27.934Z,0
2017-08-26T01:43:36.609Z,0
2017-08-26T01:44:45.589Z,0
2017-08-26T01:45:54.890Z,0
2017-08-26T01:47:04.030Z,0
2017-08-26T01:48:12.705Z,0
2017-08-26T01:49:22.326Z,0
2017-08-26T01:50:30.996Z,0
2017-08-26T01:51:40.310Z,0
2017-08-26T01:52:49.920Z,0
2017-08-26T01:53:58.910Z,0
2017-08-26T01:55:07.903Z,0
2017-08-26T01:56:17.220Z,0
2017-08-26T01:57:26.206Z,0
2017-08-26T01:58:36.169Z,0
2017-08-26T01:59:45.785Z,0
2017-08-26T02:00:55.425Z,0
2017-08-26T02:02:04.413Z,0
2017-08-26T02:03:13.410Z,0
2017-08-26T02:04:23.188Z,0
2017-08-26T02:05:32.177Z,0
2017-08-26T02:06:41.815Z,0
2017-08-26T02:07:50.810Z,0
2017-08-26T02:09:00.422Z,0
2017-08-26T02:10:10.379Z,0
2017-08-26T02:11:19.357Z,0
2017-08-26T02:12:28.359Z,0
2017-08-26T02:13:37.025Z,0
2017-08-26T02:14:46.352Z,0
2017-08-26T02:15:55.164Z,0
2017-08-26T02:17:04.462Z,0
2017-08-26T02:18:13.771Z,0
2017-08-26T02:19:22.758Z,0
2017-08-26T02:20:31.770Z,0
2017-08-26T02:21:41.405Z,0
2017-08-26T02:22:50.725Z,0
2017-08-26T02:24:00.336Z,0
2017-08-26T02:25:09.013Z,0
2017-08-26T02:26:18.010Z,0
2017-08-26T02:27:27.171Z,0
2017-08-26T02:28:36.145Z,0
2017-08-26T02:29:45.126Z,0
2017-08-26T02:30:54.100Z,0
2017-08-26T02:32:03.087Z,0
2017-08-26T02:33:12.237Z,0
2017-08-26T02:34:22.224Z,0
2017-08-26T02:35:30.894Z,0
2017-08-26T02:36:39.869Z,0
2017-08-26T02:37:48.853Z,0
2017-08-26T02:38:57.736Z,0
2017-08-26T02:40:06.761Z,0
2017-08-26T02:41:15.753Z,0
2017-08-26T02:42:24.753Z,0
2017-08-26T02:43:33.738Z,0
2017-08-26T02:44:42.558Z,0
2017-08-26T02:45:52.479Z,0
2017-08-26T02:47:01.156Z,0
2017-08-26T02:48:10.135Z,0
2017-08-26T02:49:18.802Z,0
2017-08-26T02:50:27.557Z,0
2017-08-26T02:51:36.875Z,0
2017-08-26T02:52:45.859Z,0
2017-08-26T02:53:55.175Z,0
2017-08-26T02:55:04.496Z,0
2017-08-26T02:56:13.813Z,0
2017-08-26T02:57:22.846Z,0
2017-08-26T02:58:32.457Z,0
2017-08-26T02:59:41.748Z,0
2017-08-26T03:00:50.733Z,0
2017-08-26T03:02:00.148Z,0
2017-08-26T03:03:09.810Z,0
2017-08-26T03:04:18.817Z,0
2017-08-26T03:05:27.797Z,0
2017-08-26T03:06:38.048Z,0
2017-08-26T03:07:47.156Z,0
2017-08-26T03:08:56.481Z,0
2017-08-26T03:10:05.776Z,0
2017-08-26T03:11:15.099Z,0
2017-08-26T03:12:23.774Z,0
2017-08-26T03:13:33.070Z,0
2017-08-26T03:14:42.371Z,0
2017-08-26T03:15:51.990Z,0
2017-08-26T03:17:00.664Z,0
2017-08-26T03:18:09.656Z,0
2017-08-26T03:19:18.651Z,0
2017-08-26T03:20:27.633Z,0
2017-08-26T03:21:36.322Z,0
2017-08-26T03:22:46.642Z,0
2017-08-26T03:23:55.648Z,0
2017-08-26T03:25:04.959Z,0
2017-08-26T03:26:13.637Z,0
2017-08-26T03:27:22.930Z,0
2017-08-26T03:28:32.222Z,0
2017-08-26T03:29:41.210Z,0
2017-08-26T03:30:50.625Z,0
2017-08-26T03:31:59.627Z,0
2017-08-26T03:33:08.302Z,0
2017-08-26T03:34:17.650Z,0
2017-08-26T03:35:27.571Z,0
2017-08-26T03:36:36.712Z,0
2017-08-26T03:37:45.366Z,0
2017-08-26T03:38:54.047Z,0
2017-08-26T03:40:03.026Z,0
2017-08-26T03:41:11.997Z,0
2017-08-26T03:42:21.136Z,0
2017-08-26T03:43:30.428Z,0
2017-08-26T03:44:39.736Z,0
2017-08-26T03:45:48.705Z,0
2017-08-26T03:46:57.376Z,0
2017-08-26T03:48:06.203Z,0
2017-08-26T03:49:15.821Z,0
2017-08-26T03:50:24.485Z,0
2017-08-26T03:51:34.125Z,0
2017-08-26T03:52:43.104Z,0
2017-08-26T03:53:51.943Z,0
2017-08-26T03:55:00.922Z,0
2017-08-26T03:56:09.933Z,0
2017-08-26T03:57:18.939Z,0
2017-08-26T03:58:27.912Z,0
2017-08-26T03:59:36.592Z,0
2017-08-26T04:00:45.266Z,0
2017-08-26T04:01:54.254Z,0
2017-08-26T04:03:03.569Z,0
2017-08-26T04:04:12.544Z,0
2017-08-26T04:05:21.705Z,0
2017-08-26T04:06:31.365Z,0
2017-08-26T04:07:40.664Z,0
2017-08-26T04:08:49.348Z,0
2017-08-26T04:09:58.979Z,0
2017-08-26T04:11:07.783Z,0
2017-08-26T04:12:16.446Z,0
2017-08-26T04:13:25.750Z,0
2017-08-26T04:14:35.077Z,0
2017-08-26T04:15:44.390Z,0
2017-08-26T04:16:54.632Z,0
2017-08-26T04:18:03.972Z,0
2017-08-26T04:19:12.637Z,0
2017-08-26T04:20:21.307Z,0
2017-08-26T04:21:30.290Z,0
2017-08-26T04:22:39.374Z,0
2017-08-26T04:23:48.355Z,0
2017-08-26T04:24:57.649Z,0
2017-08-26T04:26:06.316Z,0
2017-08-26T04:27:15.606Z,0
2017-08-26T04:28:25.366Z,0
2017-08-26T04:29:34.353Z,0
2017-08-26T04:30:43.065Z,0
2017-08-26T04:31:52.375Z,0
2017-08-26T04:33:01.697Z,0
2017-08-26T04:34:11.457Z,0
2017-08-26T04:35:20.120Z,0
2017-08-26T04:36:28.804Z,0
2017-08-26T04:37:37.782Z,0
2017-08-26T04:38:46.444Z,0
2017-08-26T04:39:55.908Z,0
2017-08-26T04:41:05.194Z,0
2017-08-26T04:42:14.187Z,0
2017-08-26T04:43:23.514Z,0
2017-08-26T04:44:32.187Z,0
2017-08-26T04:45:41.954Z,0
2017-08-26T04:46:50.622Z,0
2017-08-26T04:47:59.288Z,0
2017-08-26T04:49:08.585Z,0
2017-08-26T04:50:18.106Z,0
2017-08-26T04:51:27.415Z,0
2017-08-26T04:52:36.424Z,0
2017-08-26T04:53:46.038Z,0
2017-08-26T04:54:54.704Z,0
2017-08-26T04:56:03.685Z,0
2017-08-26T04:57:13.097Z,0
2017-08-26T04:58:21.778Z,0
2017-08-26T04:59:30.428Z,0
2017-08-26T05:00:39.746Z,0
2017-08-26T05:01:48.411Z,0
2017-08-26T05:02:57.400Z,0
2017-08-26T05:04:07.323Z,0
2017-08-26T05:05:16.621Z,0
2017-08-26T05:06:25.602Z,0
2017-08-26T05:07:34.595Z,0
2017-08-26T05:08:44.246Z,5
2017-08-26T05:09:53.561Z,5
2017-08-26T05:11:02.874Z,5
2017-08-26T05:12:11.555Z,5
2017-08-26T05:13:20.853Z,5
2017-08-26T05:14:29.510Z,5
2017-08-26T05:15:38.193Z,5
2017-08-26T05:16:47.170Z,5
2017-08-26T05:17:56.469Z,5
2017-08-26T05:19:05.768Z,5
2017-08-26T05:20:14.427Z,5
2017-08-26T05:21:23.433Z,5
2017-08-26T05:22:32.735Z,5
2017-08-26T05:23:42.019Z,5
2017-08-26T05:24:51.001Z,10
2017-08-26T05:26:00.447Z,10
2017-08-26T05:27:09.115Z,10
2017-08-26T05:28:18.420Z,10
2017-08-26T05:29:27.414Z,10
2017-08-26T05:30:36.782Z,10
2017-08-26T05:31:46.722Z,10
2017-08-26T05:32:55.718Z,10
2017-08-26T05:34:05.020Z,10
2017-08-26T05:35:14.318Z,10
2017-08-26T05:36:23.009Z,15
2017-08-26T05:37:32.487Z,15
2017-08-26T05:38:41.793Z,15
2017-08-26T05:39:50.772Z,15
2017-08-26T05:40:59.767Z,15
2017-08-26T05:42:08.426Z,15
2017-08-26T05:43:17.551Z,15
2017-08-26T05:44:26.855Z,15
2017-08-26T05:45:36.067Z,15
2017-08-26T05:46:45.056Z,15
2017-08-26T05:47:54.054Z,15
2017-08-26T05:49:03.667Z,20
2017-08-26T05:50:12.657Z,20
2017-08-26T05:51:21.648Z,20
2017-08-26T05:52:30.330Z,25
2017-08-26T05:53:39.318Z,25
2017-08-26T05:54:48.317Z,30
2017-08-26T05:55:56.984Z,30
2017-08-26T05:57:06.282Z,30
2017-08-26T05:58:15.664Z,30
2017-08-26T05:59:24.653Z,30
2017-08-26T06:00:34.587Z,30
2017-08-26T06:01:43.255Z,30
2017-08-26T06:02:51.927Z,30
2017-08-26T06:04:01.249Z,30
2017-08-26T06:05:09.905Z,30
2017-08-26T06:06:18.740Z,30
2017-08-26T06:07:28.039Z,30
2017-08-26T06:08:37.017Z,35
2017-08-26T06:09:45.991Z,35
2017-08-26T06:10:55.052Z,35
2017-08-26T06:12:04.878Z,35
2017-08-26T06:13:14.959Z,35
2017-08-26T06:14:24.282Z,35
2017-08-26T06:15:33.604Z,35
2017-08-26T06:16:42.910Z,35
2017-08-26T06:17:52.336Z,35
2017-08-26T06:19:01.030Z,35
2017-08-26T06:20:10.662Z,40
2017-08-26T06:21:20.619Z,40
2017-08-26T06:22:29.290Z,40
2017-08-26T06:23:38.285Z,40
2017-08-26T06:24:47.573Z,40
2017-08-26T06:25:56.654Z,40
2017-08-26T06:27:05.334Z,40
2017-08-26T06:28:14.024Z,45
2017-08-26T06:29:23.351Z,45
2017-08-26T06:30:32.958Z,45
2017-08-26T06:31:41.990Z,45
2017-08-26T06:32:51.288Z,45
2017-08-26T06:33:59.950Z,45
2017-08-26T06:35:09.289Z,45
2017-08-26T06:36:18.035Z,45
2017-08-26T06:37:27.732Z,50
2017-08-26T06:38:37.086Z,50
2017-08-26T06:39:46.113Z,50
2017-08-26T06:40:55.420Z,50
2017-08-26T06:42:04.097Z,55
2017-08-26T06:43:13.074Z,55
2017-08-26T06:44:22.399Z,55
2017-08-26T06:45:31.069Z,55
2017-08-26T06:46:41.450Z,55
2017-08-26T06:47:50.416Z,55
2017-08-26T06:48:59.085Z,60
2017-08-26T06:50:08.423Z,60
2017-08-26T06:51:18.464Z,60
2017-08-26T06:52:27.442Z,65
2017-08-26T06:53:36.435Z,65
2017-08-26T06:54:45.409Z,65
2017-08-26T06:55:54.395Z,65
2017-08-26T06:57:03.412Z,70
2017-08-26T06:58:13.044Z,70
2017-08-26T06:59:22.062Z,70
2017-08-26T07:00:31.057Z,70
2017-08-26T07:01:40.039Z,65
2017-08-26T07:02:48.723Z,65
2017-08-26T07:03:57.409Z,60
2017-08-26T07:05:06.401Z,55
2017-08-26T07:06:15.097Z,55
2017-08-26T07:07:24.102Z,55
2017-08-26T07:08:33.078Z,60
2017-08-26T07:09:42.065Z,60
2017-08-26T07:10:51.119Z,60
2017-08-26T07:12:01.057Z,65
2017-08-26T07:13:10.041Z,65
2017-08-26T07:14:19.035Z,75
2017-08-26T07:15:28.660Z,75
2017-08-26T07:16:37.513Z,80
2017-08-26T07:17:46.920Z,75
2017-08-26T07:18:55.920Z,80
2017-08-26T07:20:04.763Z,80
2017-08-26T07:21:13.744Z,80
2017-08-26T07:22:22.847Z,80
2017-08-26T07:23:31.774Z,80
2017-08-26T07:24:40.915Z,80
2017-08-26T07:25:49.592Z,80
2017-08-26T07:26:59.447Z,80
2017-08-26T07:28:09.570Z,90
2017-08-26T07:29:18.254Z,90
2017-08-26T07:30:27.824Z,95
2017-08-26T07:31:36.824Z,100
2017-08-26T07:32:46.141Z,95
2017-08-26T07:33:55.111Z,75
2017-08-26T07:35:04.410Z,80
2017-08-26T07:36:13.712Z,60
2017-08-26T07:37:23.430Z,75
2017-08-26T07:38:32.147Z,90
2017-08-26T07:39:40.811Z,95
2017-08-26T07:40:50.119Z,95
2017-08-26T07:41:59.446Z,90
2017-08-26T07:43:08.421Z,90
2017-08-26T07:44:17.416Z,75
2017-08-26T07:45:26.386Z,65
2017-08-26T07:46:35.681Z,55
2017-08-26T07:47:44.997Z,50
2017-08-26T07:48:53.644Z,50
2017-08-26T07:50:02.641Z,55
2017-08-26T07:51:11.639Z,75
2017-08-26T07:52:20.317Z,75
2017-08-26T07:53:29.287Z,70
2017-08-26T07:54:38.581Z,60
2017-08-26T07:55:47.580Z,55
2017-08-26T07:56:56.896Z,60
2017-08-26T07:58:06.202Z,70
2017-08-26T07:59:14.895Z,85
2017-08-26T08:00:24.498Z,90
2017-08-26T08:01:33.514Z,100
2017-08-26T08:02:42.812Z,105
2017-08-26T08:03:52.133Z,100
2017-08-26T08:05:01.427Z,95
2017-08-26T08:06:10.112Z,90
2017-08-26T08:07:18.765Z,95
2017-08-26T08:08:27.411Z,85
2017-08-26T08:09:36.069Z,90
2017-08-26T08:10:45.366Z,100
2017-08-26T08:11:54.345Z,105
2017-08-26T08:13:03.647Z,100
2017-08-26T08:14:13.261Z,100
2017-08-26T08:15:22.555Z,105
2017-08-26T08:16:31.528Z,110
2017-08-26T08:17:40.504Z,105
2017-08-26T08:18:50.145Z,105
2017-08-26T08:19:59.141Z,105
2017-08-26T08:21:08.432Z,95
2017-08-26T08:22:17.398Z,100
2017-08-26T08:23:26.067Z,90
2017-08-26T08:24:35.109Z,90
2017-08-26T08:25:44.404Z,95
2017-08-26T08:26:53.076Z,100
2017-08-26T08:28:02.051Z,100
2017-08-26T08:29:11.373Z,100
2017-08-26T08:30:20.383Z,100
2017-08-26T08:31:29.671Z,100
2017-08-26T08:32:38.659Z,100
2017-08-26T08:33:47.327Z,100
2017-08-26T08:34:56.308Z,100
2017-08-26T08:36:05.272Z,100
2017-08-26T08:37:14.261Z,105
2017-08-26T08:38:23.566Z,105
2017-08-26T08:39:32.872Z,105
2017-08-26T08:40:41.843Z,105
2017-08-26T08:41:50.565Z,105
2017-08-26T08:42:59.223Z,100
2017-08-26T08:44:07.887Z,100
2017-08-26T08:45:17.183Z,105
2017-08-26T08:46:26.481Z,100
2017-08-26T08:47:36.099Z,105
2017-08-26T08:48:44.762Z,105
2017-08-26T08:49:53.731Z,100
2017-08-26T08:51:02.706Z,90
2017-08-26T08:52:12.175Z,80
2017-08-26T08:53:22.107Z,75
2017-08-26T08:54:32.650Z,70
2017-08-26T08:55:42.738Z,65
2017-08-26T08:56:52.055Z,65
2017-08-26T08:58:01.080Z,60
2017-08-26T08:59:10.374Z,50
2017-08-26T09:00:19.998Z,50
2017-08-26T09:01:29.011Z,40
2017-08-26T09:02:38.335Z,35
2017-08-26T09:03:46.993Z,35
2017-08-26T09:04:55.984Z,35
2017-08-26T09:06:04.640Z,35
2017-08-26T09:07:13.613Z,35
2017-08-26T09:08:22.930Z,35
2017-08-26T09:09:31.934Z,35
2017-08-26T09:10:40.903Z,35
2017-08-26T09:11:50.217Z,35
2017-08-26T09:13:00.134Z,30
2017-08-26T09:14:09.104Z,35
2017-08-26T09:15:18.401Z,50
2017-08-26T09:16:27.702Z,45
2017-08-26T09:17:36.379Z,40
2017-08-26T09:18:45.461Z,50
2017-08-26T09:19:54.838Z,65
2017-08-26T09:21:03.847Z,65
2017-08-26T09:22:13.830Z,50
2017-08-26T09:23:24.192Z,40
2017-08-26T09:24:34.796Z,45
2017-08-26T09:25:44.509Z,45
2017-08-26T09:26:53.491Z,50
2017-08-26T09:28:02.789Z,60
2017-08-26T09:29:11.782Z,70
2017-08-26T09:30:20.754Z,85
2017-08-26T09:31:29.744Z,80
2017-08-26T09:32:39.371Z,75
2017-08-26T09:33:48.353Z,70
2017-08-26T09:34:57.977Z,80
2017-08-26T09:36:06.986Z,75
2017-08-26T09:37:16.606Z,75
2017-08-26T09:38:25.273Z,75
2017-08-26T09:39:34.253Z,75
2017-08-26T09:40:43.872Z,75
2017-08-26T09:41:53.177Z,75
2017-08-26T09:43:02.821Z,75
2017-08-26T09:44:12.448Z,70
2017-08-26T09:45:22.083Z,65
2017-08-26T09:46:31.423Z,60
2017-08-26T09:47:41.082Z,65
2017-08-26T09:48:50.122Z,55
2017-08-26T09:49:59.775Z,55
2017-08-26T09:51:08.772Z,65
2017-08-26T09:52:17.764Z,70
2017-08-26T09:53:26.445Z,70
2017-08-26T09:54:36.082Z,80
2017-08-26T09:55:45.696Z,90
2017-08-26T09:56:54.722Z,90
2017-08-26T09:58:04.411Z,80
2017-08-26T09:59:13.401Z,75
2017-08-26T10:00:22.691Z,75
2017-08-26T10:01:31.376Z,75
2017-08-26T10:02:40.359Z,70
2017-08-26T10:03:49.334Z,70
2017-08-26T10:04:58.327Z,75
2017-08-26T10:06:07.335Z,70
2017-08-26T10:07:16.052Z,70
2017-08-26T10:08:25.094Z,70
2017-08-26T10:09:34.745Z,70
2017-08-26T10:10:45.344Z,60
2017-08-26T10:11:54.655Z,60
2017-08-26T10:13:03.344Z,70
2017-08-26T10:14:12.674Z,70
2017-08-26T10:15:21.390Z,65
2017-08-26T10:16:30.065Z,65
2017-08-26T10:17:39.774Z,70
2017-08-26T10:18:48.740Z,80
2017-08-26T10:19:58.517Z,80
2017-08-26T10:21:07.537Z,75
2017-08-26T10:22:16.550Z,60
2017-08-26T10:23:25.599Z,55
2017-08-26T10:24:34.267Z,65
2017-08-26T10:25:43.239Z,60
2017-08-26T10:26:52.548Z,55
2017-08-26T10:28:01.541Z,65
2017-08-26T10:29:10.843Z,70
2017-08-26T10:30:19.844Z,65
2017-08-26T10:31:29.189Z,70
2017-08-26T10:32:38.492Z,60
2017-08-26T10:33:47.231Z,55
2017-08-26T10:34:56.893Z,55
2017-08-26T10:36:05.864Z,60
2017-08-26T10:37:14.565Z,65
2017-08-26T10:38:23.595Z,70
2017-08-26T10:39:33.603Z,70
2017-08-26T10:40:43.137Z,60
2017-08-26T10:41:52.457Z,60
2017-08-26T10:43:02.111Z,55
2017-08-26T10:44:10.780Z,50
2017-08-26T10:45:19.783Z,50
2017-08-26T10:46:28.786Z,55
2017-08-26T10:47:37.879Z,50
2017-08-26T10:48:46.880Z,45
2017-08-26T10:49:55.889Z,45
2017-08-26T10:51:04.558Z,50
2017-08-26T10:52:14.216Z,55
2017-08-26T10:53:23.196Z,55
2017-08-26T10:54:32.210Z,60
2017-08-26T10:55:41.519Z,60
2017-08-26T10:56:50.489Z,55
2017-08-26T10:57:59.481Z,55
2017-08-26T10:59:08.795Z,55
2017-08-26T11:00:18.394Z,55
2017-08-26T11:01:27.696Z,60
2017-08-26T11:02:36.690Z,55
2017-08-26T11:03:45.693Z,60
2017-08-26T11:04:55.632Z,65
2017-08-26T11:06:04.793Z,60
2017-08-26T11:07:13.783Z,55
2017-08-26T11:08:23.392Z,55
2017-08-26T11:09:32.408Z,60
2017-08-26T11:10:41.465Z,65
2017-08-26T11:11:50.156Z,60
2017-08-26T11:12:59.163Z,55
2017-08-26T11:14:07.856Z,50
2017-08-26T11:15:17.178Z,50
2017-08-26T11:16:27.112Z,55
2017-08-26T11:17:36.438Z,55
2017-08-26T11:18:45.434Z,55
2017-08-26T11:19:54.407Z,55
2017-08-26T11:21:03.399Z,50
2017-08-26T11:22:12.387Z,45
2017-08-26T11:23:21.387Z,45
2017-08-26T11:24:30.108Z,45
2017-08-26T11:25:39.092Z,40
2017-08-26T11:26:48.095Z,40
2017-08-26T11:27:57.097Z,35
2017-08-26T11:29:06.275Z,35
2017-08-26T11:30:15.271Z,25
2017-08-26T11:31:24.579Z,25
2017-08-26T11:32:34.227Z,30
2017-08-26T11:33:43.218Z,50
2017-08-26T11:34:52.211Z,55
2017-08-26T11:36:01.196Z,50
2017-08-26T11:37:10.193Z,50
2017-08-26T11:38:19.194Z,45
2017-08-26T11:39:29.135Z,45
2017-08-26T11:40:38.116Z,45
2017-08-26T11:41:46.797Z,40
2017-08-26T11:42:55.469Z,45
2017-08-26T11:44:04.172Z,50
2017-08-26T11:45:13.180Z,50
2017-08-26T11:46:22.475Z,45
2017-08-26T11:47:31.470Z,50
2017-08-26T11:48:40.765Z,50
2017-08-26T11:49:50.048Z,45
2017-08-26T11:50:58.696Z,45
2017-08-26T11:52:07.998Z,40
2017-08-26T11:53:16.985Z,40
2017-08-26T11:54:26.708Z,40
2017-08-26T11:55:35.998Z,45
2017-08-26T11:56:45.046Z,45
2017-08-26T11:57:53.762Z,50
2017-08-26T11:59:03.371Z,40
2017-08-26T12:00:12.350Z,40
2017-08-26T12:01:21.644Z,35
2017-08-26T12:02:30.934Z,35
2017-08-26T12:03:39.948Z,40
2017-08-26T12:04:48.927Z,45
2017-08-26T12:05:58.537Z,45
2017-08-26T12:07:07.832Z,45
2017-08-26T12:08:17.121Z,45
2017-08-26T12:09:26.094Z,40
2017-08-26T12:10:35.385Z,30
2017-08-26T12:11:44.686Z,35
2017-08-26T12:12:53.386Z,40
2017-08-26T12:14:02.046Z,40
2017-08-26T12:15:11.368Z,40
2017-08-26T12:16:20.667Z,45
2017-08-26T12:17:29.962Z,45
2017-08-26T12:18:39.262Z,45
2017-08-26T12:19:48.248Z,40
2017-08-26T12:20:57.239Z,35
2017-08-26T12:22:05.920Z,35
2017-08-26T12:23:15.260Z,40
2017-08-26T12:24:23.937Z,40
2017-08-26T12:25:33.010Z,40
2017-08-26T12:26:41.744Z,40
2017-08-26T12:27:50.737Z,40
2017-08-26T12:29:00.106Z,45
2017-08-26T12:30:08.779Z,45
2017-08-26T12:31:17.776Z,45
2017-08-26T12:32:27.097Z,50
2017-08-26T12:33:36.117Z,45
2017-08-26T12:34:45.083Z,50
2017-08-26T12:35:53.798Z,50
2017-08-26T12:37:02.524Z,50
2017-08-26T12:38:11.951Z,45
2017-08-26T12:39:20.606Z,45
2017-08-26T12:40:29.608Z,40
2017-08-26T12:41:38.598Z,40
2017-08-26T12:42:47.286Z,40
2017-08-26T12:43:56.172Z,35
2017-08-26T12:45:06.213Z,45
2017-08-26T12:46:15.538Z,45
2017-08-26T12:47:24.596Z,40
2017-08-26T12:48:33.420Z,40
2017-08-26T12:49:42.756Z,45
2017-08-26T12:50:52.452Z,45
2017-08-26T12:52:02.197Z,40
2017-08-26T12:53:11.380Z,40
2017-08-26T12:54:20.883Z,40
2017-08-26T12:55:30.552Z,45
2017-08-26T12:56:39.874Z,40
2017-08-26T12:57:48.935Z,35
2017-08-26T12:58:57.598Z,30
2017-08-26T13:00:07.216Z,30
2017-08-26T13:01:16.568Z,35
2017-08-26T13:02:25.701Z,30
2017-08-26T13:03:34.699Z,25
2017-08-26T13:04:43.801Z,30
2017-08-26T13:05:52.783Z,40
2017-08-26T13:07:02.195Z,55
2017-08-26T13:08:11.184Z,60
2017-08-26T13:09:20.482Z,55
2017-08-26T13:10:29.857Z,50
2017-08-26T13:11:39.150Z,50
2017-08-26T13:12:48.525Z,50
2017-08-26T13:13:57.829Z,50
2017-08-26T13:15:06.848Z,45
2017-08-26T13:16:16.188Z,40
2017-08-26T13:17:25.221Z,40
2017-08-26T13:18:33.883Z,40
2017-08-26T13:19:43.197Z,35
2017-08-26T13:20:52.499Z,35
2017-08-26T13:22:01.168Z,40
2017-08-26T13:23:10.370Z,40
2017-08-26T13:24:19.494Z,35
2017-08-26T13:25:28.528Z,35
2017-08-26T13:26:37.879Z,30
2017-08-26T13:27:47.169Z,35
2017-08-26T13:28:56.622Z,35
2017-08-26T13:30:05.952Z,35
2017-08-26T13:31:15.270Z,35
2017-08-26T13:32:24.605Z,40
2017-08-26T13:33:33.589Z,45
2017-08-26T13:34:42.645Z,40
2017-08-26T13:35:51.622Z,40
2017-08-26T13:37:00.350Z,40
2017-08-26T13:38:09.653Z,35
2017-08-26T13:39:18.663Z,30
2017-08-26T13:40:27.948Z,30
2017-08-26T13:41:37.297Z,25
2017-08-26T13:42:45.975Z,25
2017-08-26T13:43:54.968Z,25
2017-08-26T13:45:04.258Z,30
2017-08-26T13:46:13.886Z,30
2017-08-26T13:47:22.852Z,35
2017-08-26T13:48:31.886Z,40
2017-08-26T13:49:40.545Z,40
2017-08-26T13:50:49.881Z,40
2017-08-26T13:51:58.944Z,35
2017-08-26T13:53:07.941Z,35
2017-08-26T13:54:17.559Z,30
2017-08-26T13:55:26.273Z,25
2017-08-26T13:56:35.288Z,25
2017-08-26T13:57:44.377Z,25
2017-08-26T13:58:53.384Z,30
2017-08-26T14:00:02.709Z,30
2017-08-26T14:01:12.009Z,30
2017-08-26T14:02:20.987Z,30
2017-08-26T14:03:30.134Z,30
2017-08-26T14:04:39.448Z,30
2017-08-26T14:05:48.774Z,35
2017-08-26T14:06:58.110Z,35
2017-08-26T14:08:07.101Z,35
2017-08-26T14:09:16.114Z,30
2017-08-26T14:10:25.111Z,30
2017-08-26T14:11:34.404Z,35
2017-08-26T14:12:43.700Z,35
2017-08-26T14:13:53.294Z,30
2017-08-26T14:15:02.927Z,30
2017-08-26T14:16:11.950Z,35
2017-08-26T14:17:20.950Z,40
2017-08-26T14:18:29.913Z,35
2017-08-26T14:19:39.549Z,35
2017-08-26T14:20:48.526Z,35
2017-08-26T14:21:57.177Z,35
2017-08-26T14:23:06.164Z,30
2017-08-26T14:24:15.156Z,30
2017-08-26T14:25:24.790Z,30
2017-08-26T14:26:33.507Z,30
2017-08-26T14:27:42.491Z,25
2017-08-26T14:28:51.786Z,25
2017-08-26T14:30:00.761Z,25
2017-08-26T14:31:10.404Z,30
2017-08-26T14:32:19.388Z,30
2017-08-26T14:33:28.769Z,30
2017-08-26T14:34:37.748Z,30
2017-08-26T14:35:47.070Z,30
2017-08-26T14:36:55.725Z,30
2017-08-26T14:38:04.750Z,30
2017-08-26T14:39:14.136Z,30
2017-08-26T14:40:22.786Z,30
2017-08-26T14:41:32.073Z,30
2017-08-26T14:42:40.728Z,30
2017-08-26T14:43:49.390Z,30
2017-08-26T14:44:58.717Z,30
2017-08-26T14:46:07.374Z,30
2017-08-26T14:47:16.350Z,35
2017-08-26T14:48:25.673Z,35
2017-08-26T14:49:35.297Z,35
2017-08-26T14:50:44.276Z,30
2017-08-26T14:51:53.554Z,30
2017-08-26T14:53:02.208Z,30
2017-08-26T14:54:10.866Z,30
2017-08-26T14:55:20.032Z,30
2017-08-26T14:56:29.339Z,30
2017-08-26T14:57:38.614Z,30
2017-08-26T14:58:47.585Z,30
2017-08-26T14:59:56.783Z,30
2017-08-26T15:01:06.575Z,30
2017-08-26T15:02:15.717Z,30
2017-08-26T15:03:24.698Z,30
2017-08-26T15:04:33.999Z,25
2017-08-26T15:05:43.318Z,25
2017-08-26T15:06:52.623Z,25
2017-08-26T15:08:02.566Z,25
2017-08-26T15:09:11.233Z,25
2017-08-26T15:10:19.892Z,20
2017-08-26T15:11:28.872Z,20
2017-08-26T15:12:37.527Z,20
2017-08-26T15:13:46.537Z,20
2017-08-26T15:14:55.547Z,20
2017-08-26T15:16:04.878Z,20
2017-08-26T15:17:13.540Z,25
2017-08-26T15:18:22.532Z,25
2017-08-26T15:19:31.193Z,30
2017-08-26T15:20:40.810Z,30
2017-08-26T15:21:49.797Z,35
2017-08-26T15:22:59.764Z,30
2017-08-26T15:24:09.059Z,25
2017-08-26T15:25:18.356Z,25
2017-08-26T15:26:27.341Z,30
2017-08-26T15:27:36.637Z,30
2017-08-26T15:28:45.636Z,30
2017-08-26T15:29:54.305Z,30
2017-08-26T15:31:03.297Z,30
2017-08-26T15:32:12.904Z,25
2017-08-26T15:33:22.925Z,25
2017-08-26T15:34:31.929Z,25
2017-08-26T15:35:40.635Z,25
2017-08-26T15:36:49.591Z,25
2017-08-26T15:38:00.292Z,20
2017-08-26T15:39:09.592Z,20
2017-08-26T15:40:19.224Z,20
2017-08-26T15:41:28.272Z,20
2017-08-26T15:42:37.363Z,20
2017-08-26T15:43:46.336Z,20
2017-08-26T15:44:55.014Z,20
2017-08-26T15:46:04.014Z,20
2017-08-26T15:47:12.985Z,20
2017-08-26T15:48:22.292Z,20
2017-08-26T15:49:30.961Z,20
2017-08-26T15:50:39.665Z,20
2017-08-26T15:51:48.941Z,20
2017-08-26T15:52:57.615Z,20
2017-08-26T15:54:06.276Z,20
2017-08-26T15:55:15.565Z,20
2017-08-26T15:56:24.888Z,15
2017-08-26T15:57:34.480Z,15
2017-08-26T15:58:43.780Z,15
2017-08-26T15:59:53.064Z,20
2017-08-26T16:01:02.044Z,20
2017-08-26T16:02:11.980Z,15
2017-08-26T16:03:21.401Z,15
2017-08-26T16:04:30.712Z,15
2017-08-26T16:05:39.691Z,15
2017-08-26T16:06:48.690Z,15
2017-08-26T16:07:57.678Z,15
2017-08-26T16:09:06.968Z,20
2017-08-26T16:10:15.968Z,20
2017-08-26T16:11:24.946Z,20
2017-08-26T16:12:33.602Z,15
2017-08-26T16:13:42.577Z,15
2017-08-26T16:14:51.240Z,20
2017-08-26T16:16:00.530Z,20
2017-08-26T16:17:09.197Z,20
2017-08-26T16:18:18.177Z,15
2017-08-26T16:19:27.154Z,15
2017-08-26T16:20:35.819Z,15
2017-08-26T16:21:45.107Z,15
2017-08-26T16:22:54.700Z,15
2017-08-26T16:24:04.006Z,15
2017-08-26T16:25:13.001Z,15
2017-08-26T16:26:22.610Z,15
2017-08-26T16:27:31.898Z,15
2017-08-26T16:28:40.553Z,15
2017-08-26T16:29:49.239Z,15
2017-08-26T16:30:58.518Z,15
2017-08-26T16:32:07.809Z,15
2017-08-26T16:33:17.112Z,15
2017-08-26T16:34:26.092Z,15
2017-08-26T16:35:35.142Z,10
2017-08-26T16:36:44.120Z,15